Time;durP1;ratioP1;P1;durP2;ratioP2;P2;SDS_P1;SDS_P2;PMS_P1;PMS_P2;Temp;Humidity;BMP_temperature;BMP_pressure;BME280_temperature;BME280_humidity;BME280_pressure;Samples;Min_cycle;Max_cycle;Signal;HPM_P1;HPM_P2
2023/09/11 00:01:25;;;;;;;4.32;2.37;;;;;;;21.63;46.98;99713.00;4463198;32;33426;-69
2023/09/11 00:03:52;;;;;;;5.40;2.83;;;;;;;21.78;46.60;99704.03;4466671;32;34608;-70
2023/09/11 00:06:20;;;;;;;5.32;2.55;;;;;;;21.78;46.58;99706.75;4443122;32;35485;-69
2023/09/11 00:08:48;;;;;;;7.05;4.45;;;;;;;21.61;46.98;99712.37;4443765;32;34434;-69
2023/09/11 00:11:16;;;;;;;4.10;2.65;;;;;;;21.60;47.14;99702.53;4437415;32;34350;-70
2023/09/11 00:13:43;;;;;;;7.78;2.97;;;;;;;21.59;47.07;99708.97;4445343;32;33978;-69
2023/09/11 00:16:11;;;;;;;4.57;2.35;;;;;;;21.72;46.73;99696.59;4440254;32;33668;-70
2023/09/11 00:18:38;;;;;;;4.20;2.78;;;;;;;21.60;47.02;99704.37;4439691;32;32795;-70
2023/09/11 00:21:07;;;;;;;3.97;2.15;;;;;;;21.60;47.00;99698.94;4436900;32;34962;-70
2023/09/11 00:23:34;;;;;;;7.93;3.53;;;;;;;21.73;46.74;99701.00;4442858;32;34993;-70
2023/09/11 00:26:02;;;;;;;7.25;4.30;;;;;;;21.67;46.92;99693.56;4445518;32;33878;-69
2023/09/11 00:28:29;;;;;;;5.45;3.35;;;;;;;21.70;46.80;99690.47;4446442;32;33170;-70
2023/09/11 00:31:01;;;;;;;7.45;2.55;;;;;;;21.75;46.73;99696.22;4448105;32;34650;-70
2023/09/11 00:33:29;;;;;;;4.47;2.42;;;;;;;21.77;46.67;99686.84;4448444;32;34795;-70
2023/09/11 00:35:56;;;;;;;9.52;3.60;;;;;;;21.86;46.55;99691.16;4445423;32;35085;-70
2023/09/11 00:38:24;;;;;;;5.47;2.90;;;;;;;21.99;46.31;99685.03;4462999;32;33311;-70
2023/09/11 00:40:52;;;;;;;4.65;3.10;;;;;;;22.04;46.27;99679.00;4465354;32;33679;-70
2023/09/11 00:43:20;;;;;;;4.30;2.58;;;;;;;22.14;45.96;99681.44;4465637;32;34037;-71
2023/09/11 00:45:50;;;;;;;11.35;3.55;;;;;;;22.21;46.00;99679.66;4466138;32;33747;-69
2023/09/11 00:48:19;;;;;;;3.75;2.37;;;;;;;22.21;46.07;99687.81;4462795;32;33219;-69
2023/09/11 00:50:46;;;;;;;5.82;2.42;;;;;;;22.19;45.91;99679.00;4460973;32;33814;-73
2023/09/11 00:53:14;;;;;;;4.20;2.70;;;;;;;22.21;45.83;99677.75;4466601;32;34045;-72
2023/09/11 00:55:44;;;;;;;6.68;3.17;;;;;;;22.06;46.22;99683.22;4459039;32;32771;-72
2023/09/11 00:58:15;;;;;;;4.35;2.85;;;;;;;22.07;46.05;99670.44;4460168;32;33532;-72
2023/09/11 01:00:46;;;;;;;5.22;2.40;;;;;;;21.89;46.46;99678.16;4462764;32;33700;-73
2023/09/11 01:03:14;;;;;;;10.27;3.47;;;;;;;21.77;46.73;99677.81;4452408;32;34977;-73
2023/09/11 01:05:43;;;;;;;5.68;3.15;;;;;;;21.82;46.66;99675.34;4453302;32;33699;-71
2023/09/11 01:08:10;;;;;;;5.60;2.87;;;;;;;21.80;46.70;99680.16;4464834;32;34751;-72
2023/09/11 01:10:38;;;;;;;8.20;3.40;;;;;;;21.85;46.67;99675.81;4456751;32;34990;-72
2023/09/11 01:13:06;;;;;;;6.82;2.35;;;;;;;21.85;46.74;99680.44;4453586;32;33831;-72
2023/09/11 01:15:38;;;;;;;4.75;2.28;;;;;;;21.84;46.92;99676.88;4464246;32;34007;-72
2023/09/11 01:18:11;;;;;;;21.52;3.30;;;;;;;21.90;46.70;99679.88;4463856;32;34011;-72
2023/09/11 01:21:11;;;;;;;4.93;3.08;;;;;;;21.84;46.71;99676.03;4454905;32;34988;-72
2023/09/11 01:23:44;;;;;;;8.27;4.80;;;;;;;21.63;47.24;99679.50;4457688;32;33708;-68
2023/09/11 01:26:44;;;;;;;7.35;4.62;;;;;;;21.67;47.15;99678.09;4458897;32;34247;-70
2023/09/11 01:29:23;;;;;;;7.40;3.25;;;;;;;21.36;47.91;99681.84;4452744;32;33145;-72
2023/09/11 01:31:51;;;;;;;5.62;2.78;;;;;;;21.44;47.80;99677.31;4430770;32;33304;-71
2023/09/11 01:34:19;;;;;;;5.95;3.50;;;;;;;21.34;48.02;99672.97;4414711;32;34004;-72
2023/09/11 01:36:47;;;;;;;5.65;3.65;;;;;;;21.31;48.08;99675.22;4428831;32;33113;-72
2023/09/11 01:39:14;;;;;;;5.35;2.75;;;;;;;21.29;48.09;99672.69;4429065;32;31839;-72
2023/09/11 01:41:45;;;;;;;7.70;3.05;;;;;;;21.13;48.51;99676.41;4431354;32;33841;-71
2023/09/11 01:44:18;;;;;;;4.87;2.85;;;;;;;21.24;48.16;99675.13;4419284;32;34004;-72
2023/09/11 01:46:47;;;;;;;4.15;2.30;;;;;;;21.23;48.25;99673.44;4429047;32;33308;-72
2023/09/11 01:49:18;;;;;;;7.45;3.62;;;;;;;21.22;48.36;99669.03;4431394;32;33087;-71
2023/09/11 01:51:46;;;;;;;10.63;3.42;;;;;;;21.19;48.44;99669.41;4432799;32;33435;-70
2023/09/11 01:54:14;;;;;;;6.78;3.03;;;;;;;21.29;48.20;99666.41;4418642;32;33618;-70
2023/09/11 01:56:42;;;;;;;5.82;2.60;;;;;;;21.19;48.51;99672.13;4415068;32;33444;-70
2023/09/11 01:59:10;;;;;;;5.32;2.60;;;;;;;21.26;48.39;99669.50;4429444;32;34115;-70
2023/09/11 02:01:37;;;;;;;6.03;3.28;;;;;;;21.15;48.66;99673.50;4419437;32;35329;-71
2023/09/11 02:04:05;;;;;;;4.75;2.83;;;;;;;21.13;48.76;99673.69;4463497;32;35209;-71
2023/09/11 02:06:33;;;;;;;4.60;2.70;;;;;;;21.08;48.93;99678.00;4463016;32;34967;-71
2023/09/11 02:09:02;;;;;;;7.00;3.25;;;;;;;20.64;49.97;99679.56;4462654;32;34131;-71
2023/09/11 02:11:30;;;;;;;6.30;2.47;;;;;;;20.70;49.73;99676.09;4454407;32;33678;-71
2023/09/11 02:13:57;;;;;;;3.67;2.72;;;;;;;20.65;49.96;99683.97;4457117;32;34260;-71
2023/09/11 02:16:28;;;;;;;4.35;2.58;;;;;;;20.66;49.94;99680.19;4453639;32;33640;-71
2023/09/11 02:18:56;;;;;;;8.48;2.70;;;;;;;20.68;50.01;99674.59;4454301;32;33745;-70
2023/09/11 02:21:24;;;;;;;6.25;3.60;;;;;;;20.81;49.65;99674.00;4464385;32;33435;-71
2023/09/11 02:23:51;;;;;;;5.50;2.97;;;;;;;20.81;49.72;99674.84;4458807;32;33816;-71
2023/09/11 02:26:19;;;;;;;4.20;2.80;;;;;;;20.91;49.41;99677.31;4453210;32;34539;-70
2023/09/11 02:28:47;;;;;;;7.95;3.37;;;;;;;20.95;49.28;99675.91;4457587;32;33417;-71
2023/09/11 02:31:15;;;;;;;8.63;4.20;;;;;;;20.87;49.48;99678.69;4456100;32;33443;-71
2023/09/11 02:33:42;;;;;;;3.80;2.45;;;;;;;20.87;49.47;99675.97;4461346;32;33915;-71
2023/09/11 02:36:10;;;;;;;5.53;2.62;;;;;;;20.87;49.41;99667.81;4452774;32;34916;-70
2023/09/11 02:38:38;;;;;;;4.65;2.62;;;;;;;20.96;49.16;99674.84;4459531;32;33507;-70
2023/09/11 02:41:06;;;;;;;3.58;2.50;;;;;;;21.00;49.09;99676.19;4465272;32;33762;-70
2023/09/11 02:43:37;;;;;;;5.65;2.08;;;;;;;20.94;49.31;99668.78;4457531;32;33660;-70
2023/09/11 02:46:05;;;;;;;6.53;2.78;;;;;;;20.85;49.53;99678.88;4450789;32;33752;-70
2023/09/11 02:48:32;;;;;;;7.35;2.10;;;;;;;20.77;49.84;99668.06;4455740;32;33325;-70
2023/09/11 02:51:00;;;;;;;4.50;2.87;;;;;;;20.75;49.69;99667.41;4465008;32;34100;-70
2023/09/11 02:53:28;;;;;;;6.87;2.97;;;;;;;20.74;49.74;99667.56;4459226;32;35483;-71
2023/09/11 02:55:56;;;;;;;6.85;2.70;;;;;;;20.80;49.59;99669.56;4468261;32;33768;-70
2023/09/11 02:58:23;;;;;;;6.80;4.50;;;;;;;20.81;49.51;99676.72;4468817;32;34001;-69
2023/09/11 03:01:02;;;;;;;8.18;4.78;;;;;;;20.63;49.97;99671.56;4633850;26;33519;-77
2023/09/11 03:03:30;;;;;;;6.15;2.83;;;;;;;20.66;49.93;99672.03;4480145;31;33717;-75
2023/09/11 03:06:00;;;;;;;5.10;2.40;;;;;;;20.59;50.17;99665.66;4485184;32;34041;-75
2023/09/11 03:08:28;;;;;;;4.12;2.67;;;;;;;20.62;50.09;99659.84;4471381;31;33281;-76
2023/09/11 03:11:05;;;;;;;7.65;2.85;;;;;;;20.67;49.91;99665.59;4488046;31;33749;-75
2023/09/11 03:13:33;;;;;;;7.30;3.42;;;;;;;20.68;49.79;99659.13;4481958;31;32693;-75
2023/09/11 03:16:13;;;;;;;6.20;2.62;;;;;;;20.60;50.03;99661.06;4466531;32;34716;-75
2023/09/11 03:18:42;;;;;;;5.00;2.60;;;;;;;20.67;49.97;99659.28;4455223;32;33533;-75
2023/09/11 03:21:10;;;;;;;3.97;2.47;;;;;;;20.67;49.92;99662.88;4467565;32;33854;-74
2023/09/11 03:23:38;;;;;;;17.67;3.15;;;;;;;20.68;49.94;99659.13;4452500;32;35177;-74
2023/09/11 03:26:14;;;;;;;6.20;2.58;;;;;;;20.41;50.62;99657.75;4447060;32;34652;-74
2023/09/11 03:28:49;;;;;;;3.80;1.92;;;;;;;20.40;50.73;99653.34;4463916;32;34337;-74
2023/09/11 03:31:17;;;;;;;3.53;2.55;;;;;;;20.51;50.48;99660.25;4466149;32;33460;-74
2023/09/11 03:33:45;;;;;;;6.93;3.55;;;;;;;20.48;50.65;99656.03;4453714;32;34855;-73
2023/09/11 03:36:17;;;;;;;6.40;2.92;;;;;;;20.56;50.47;99660.56;4451686;32;33873;-74
2023/09/11 03:38:45;;;;;;;7.05;2.90;;;;;;;20.57;50.40;99656.81;4453136;32;32941;-74
2023/09/11 03:41:13;;;;;;;5.15;2.45;;;;;;;20.52;50.55;99656.53;4464727;32;33679;-74
2023/09/11 03:43:41;;;;;;;3.50;2.17;;;;;;;20.51;50.60;99660.25;4462867;32;33482;-74
2023/09/11 03:46:12;;;;;;;4.87;2.78;;;;;;;20.52;50.59;99652.97;4461756;32;34715;-74
2023/09/11 03:48:41;;;;;;;7.35;3.47;;;;;;;20.37;50.94;99650.97;4465322;32;34019;-74
2023/09/11 03:51:10;;;;;;;6.57;3.55;;;;;;;20.35;51.04;99655.78;4466082;32;33722;-74
2023/09/11 03:53:42;;;;;;;3.28;2.28;;;;;;;20.45;50.73;99650.94;4474147;31;34225;-73
2023/09/11 03:56:12;;;;;;;5.30;3.65;;;;;;;20.46;50.67;99657.22;4489691;31;34074;-74
2023/09/11 03:58:42;;;;;;;11.00;3.87;;;;;;;20.49;50.64;99659.56;4494413;31;33546;-73
2023/09/11 04:01:10;;;;;;;5.43;3.12;;;;;;;20.53;50.56;99654.66;4480033;31;33125;-73
2023/09/11 04:03:39;;;;;;;4.60;2.53;;;;;;;20.44;50.85;99648.38;4481217;31;34048;-73
2023/09/11 04:06:06;;;;;;;8.05;3.03;;;;;;;20.24;51.37;99651.56;4483197;31;33932;-73
2023/09/11 04:08:34;;;;;;;4.53;2.72;;;;;;;20.14;51.65;99642.81;4484134;32;34067;-76
2023/09/11 04:11:02;;;;;;;10.60;4.80;;;;;;;20.27;51.25;99646.81;4482576;31;33763;-75
2023/09/11 04:13:30;;;;;;;4.53;2.37;;;;;;;20.35;50.93;99650.34;4481578;31;32828;-75
2023/09/11 04:15:57;;;;;;;5.97;3.35;;;;;;;20.41;50.75;99644.16;4484046;31;33458;-75
2023/09/11 04:18:25;;;;;;;8.18;3.97;;;;;;;20.27;51.16;99635.94;4482855;31;33130;-75
2023/09/11 04:21:00;;;;;;;6.75;3.03;;;;;;;20.37;50.94;99642.00;4486493;31;33890;-74
2023/09/11 04:23:29;;;;;;;5.10;3.10;;;;;;;20.30;51.14;99639.16;4481022;31;33834;-75
2023/09/11 04:25:56;;;;;;;5.18;2.22;;;;;;;20.27;51.31;99635.94;4490294;31;33661;-75
2023/09/11 04:28:24;;;;;;;5.00;2.67;;;;;;;20.31;51.25;99637.28;4481510;31;33070;-74
2023/09/11 04:30:52;;;;;;;7.62;3.33;;;;;;;20.22;51.58;99639.19;4469502;32;33694;-74
2023/09/11 04:33:20;;;;;;;5.12;2.20;;;;;;;20.33;51.32;99636.06;4482782;32;33959;-74
2023/09/11 04:35:48;;;;;;;6.85;3.03;;;;;;;20.43;50.94;99636.66;4484299;31;34009;-76
2023/09/11 04:38:16;;;;;;;10.10;2.87;;;;;;;20.47;50.84;99632.56;4483105;31;32214;-70
2023/09/11 04:40:44;;;;;;;6.97;3.53;;;;;;;20.39;50.95;99638.06;4478795;32;35046;-71
2023/09/11 04:43:12;;;;;;;5.60;2.92;;;;;;;20.41;50.87;99633.28;4470172;32;33695;-71
2023/09/11 04:45:40;;;;;;;5.62;3.53;;;;;;;20.44;50.87;99632.91;4484315;32;33979;-77
2023/09/11 04:48:07;;;;;;;3.65;2.60;;;;;;;20.52;50.75;99629.34;4483871;32;32394;-75
2023/09/11 04:50:36;;;;;;;4.37;2.78;;;;;;;20.53;50.85;99631.03;4498605;31;34521;-74
2023/09/11 04:53:04;;;;;;;5.30;3.20;;;;;;;20.56;50.78;99633.38;4497279;31;34326;-74
2023/09/11 04:55:32;;;;;;;5.15;3.15;;;;;;;20.61;50.71;99630.97;4483423;32;34669;-74
2023/09/11 04:58:00;;;;;;;3.78;2.75;;;;;;;20.61;50.82;99635.53;4483124;31;34199;-74
2023/09/11 05:00:29;;;;;;;4.57;2.85;;;;;;;20.67;50.77;99629.38;4482381;31;34834;-74
2023/09/11 05:02:57;;;;;;;4.20;2.53;;;;;;;20.60;51.00;99626.53;4478136;31;35082;-74
2023/09/11 05:05:25;;;;;;;7.87;2.85;;;;;;;20.67;50.92;99632.09;4476112;31;35157;-74
2023/09/11 05:07:53;;;;;;;7.07;4.25;;;;;;;20.80;50.74;99629.63;4482869;32;33384;-74
2023/09/11 05:10:21;;;;;;;6.57;2.60;;;;;;;20.86;50.58;99630.75;4480104;31;33860;-74
2023/09/11 05:12:49;;;;;;;6.37;3.70;;;;;;;20.98;50.42;99629.28;4478614;31;35295;-74
2023/09/11 05:15:17;;;;;;;10.25;4.97;;;;;;;21.13;50.22;99627.44;4496801;31;33698;-74
2023/09/11 05:17:44;;;;;;;5.70;2.97;;;;;;;21.30;49.93;99630.81;4482371;31;33851;-74
2023/09/11 05:20:12;;;;;;;6.35;2.62;;;;;;;21.60;49.22;99628.13;4481830;31;34841;-74
2023/09/11 05:22:40;;;;;;;12.48;3.92;;;;;;;21.78;48.87;99622.28;4469232;32;35210;-74
2023/09/11 05:25:08;;;;;;;5.87;3.70;;;;;;;21.83;48.80;99628.88;4495832;31;34692;-74
2023/09/11 05:27:36;;;;;;;5.47;3.33;;;;;;;21.90;48.83;99623.50;4486004;31;34413;-75
2023/09/11 05:30:04;;;;;;;10.88;5.47;;;;;;;22.03;48.75;99628.25;4482643;31;32707;-74
2023/09/11 05:32:32;;;;;;;5.97;4.00;;;;;;;22.06;48.78;99628.72;4480247;31;34254;-74
2023/09/11 05:35:00;;;;;;;6.25;3.33;;;;;;;22.18;48.63;99625.50;4474312;31;35473;-74
2023/09/11 05:37:28;;;;;;;5.90;3.47;;;;;;;22.29;48.51;99625.88;4481280;31;33538;-74
2023/09/11 05:39:56;;;;;;;10.45;4.12;;;;;;;22.38;48.60;99629.31;4479964;31;33920;-74
2023/09/11 05:42:23;;;;;;;9.27;4.05;;;;;;;22.45;48.68;99622.03;4481893;31;33941;-71
2023/09/11 05:44:51;;;;;;;6.32;3.25;;;;;;;22.50;48.77;99622.31;4482690;32;33591;-71
2023/09/11 05:47:19;;;;;;;8.18;3.17;;;;;;;22.62;48.57;99627.22;4484861;31;33200;-72
2023/09/11 05:49:47;;;;;;;5.82;3.47;;;;;;;22.70;48.50;99622.50;4480285;31;33842;-79
2023/09/11 05:52:15;;;;;;;7.07;3.22;;;;;;;22.79;48.50;99623.19;4492850;31;33827;-77
2023/09/11 05:54:42;;;;;;;6.87;4.10;;;;;;;22.90;48.43;99619.09;4482540;31;33252;-78
2023/09/11 05:57:10;;;;;;;12.88;4.22;;;;;;;22.99;48.37;99628.84;4483237;31;33286;-78
2023/09/11 05:59:38;;;;;;;5.43;3.50;;;;;;;23.10;48.25;99627.47;4484517;31;34582;-77
2023/09/11 06:02:06;;;;;;;8.82;4.22;;;;;;;23.16;48.00;99630.22;4478384;31;34289;-77
2023/09/11 06:04:33;;;;;;;8.07;3.08;;;;;;;23.28;47.67;99627.81;4478031;31;33823;-78
2023/09/11 06:07:03;;;;;;;7.80;3.17;;;;;;;23.38;47.28;99624.72;4482242;31;33288;-78
2023/09/11 06:09:32;;;;;;;10.23;3.70;;;;;;;23.45;46.98;99626.44;4482317;31;33951;-77
2023/09/11 06:12:00;;;;;;;6.90;2.92;;;;;;;23.53;46.66;99628.19;4440629;32;34899;-77
2023/09/11 06:14:27;;;;;;;9.70;4.12;;;;;;;23.56;46.47;99626.91;4433865;32;33831;-77
2023/09/11 06:16:55;;;;;;;8.02;3.28;;;;;;;23.60;46.04;99625.47;4446543;32;32066;-77
2023/09/11 06:19:23;;;;;;;6.47;3.75;;;;;;;23.68;46.15;99623.44;4437192;32;33337;-77
2023/09/11 06:21:50;;;;;;;9.07;4.25;;;;;;;23.81;46.58;99622.66;4441847;32;32506;-77
2023/09/11 06:24:18;;;;;;;9.40;3.42;;;;;;;23.93;46.64;99621.03;4443553;32;34004;-78
2023/09/11 06:26:46;;;;;;;8.15;3.92;;;;;;;24.14;46.29;99613.72;4439576;32;34830;-77
2023/09/11 06:29:14;;;;;;;11.57;4.68;;;;;;;24.36;45.37;99623.47;4437189;32;33740;-78
2023/09/11 06:31:41;;;;;;;7.45;4.10;;;;;;;24.55;45.07;99624.56;4446712;32;35056;-77
2023/09/11 06:34:09;;;;;;;8.30;4.07;;;;;;;24.75;44.69;99624.62;4436651;32;33524;-78
2023/09/11 06:36:37;;;;;;;7.18;3.78;;;;;;;24.80;44.87;99622.06;4438075;32;34167;-77
2023/09/11 06:39:05;;;;;;;6.53;3.42;;;;;;;24.90;44.84;99627.13;4424688;32;33464;-75
2023/09/11 06:41:33;;;;;;;8.32;4.68;;;;;;;25.00;45.03;99630.28;4433938;32;33981;-74
2023/09/11 06:44:02;;;;;;;7.22;3.83;;;;;;;25.07;44.97;99633.00;4471353;31;33788;-76
2023/09/11 06:46:30;;;;;;;10.05;4.57;;;;;;;25.08;44.31;99629.25;4483579;31;33253;-77
2023/09/11 06:48:58;;;;;;;10.63;4.30;;;;;;;25.13;43.76;99634.09;4479956;31;33594;-77
2023/09/11 06:51:26;;;;;;;7.90;3.37;;;;;;;25.08;44.23;99645.69;4484873;32;33110;-77
2023/09/11 06:53:54;;;;;;;7.30;3.62;;;;;;;25.35;43.63;99640.19;4484115;32;33503;-76
2023/09/11 06:56:22;;;;;;;9.90;3.42;;;;;;;25.32;44.56;99645.03;4484623;32;33103;-76
2023/09/11 06:58:49;;;;;;;8.10;3.92;;;;;;;25.46;44.70;99642.28;4482583;32;34725;-76
2023/09/11 07:01:17;;;;;;;7.70;3.85;;;;;;;25.65;44.64;99641.41;4479950;31;33974;-76
2023/09/11 07:03:45;;;;;;;7.35;4.75;;;;;;;25.52;44.40;99645.00;4475485;32;33781;-76
2023/09/11 07:06:13;;;;;;;8.10;5.12;;;;;;;25.59;44.49;99645.00;4484679;32;32172;-76
2023/09/11 07:08:41;;;;;;;10.80;4.47;;;;;;;25.72;44.74;99639.47;4467795;32;35020;-76
2023/09/11 07:11:09;;;;;;;8.80;3.78;;;;;;;25.84;44.00;99647.88;4481098;31;34290;-76
2023/09/11 07:13:38;;;;;;;8.18;4.15;;;;;;;26.08;43.51;99646.31;4477932;32;33897;-77
2023/09/11 07:16:05;;;;;;;11.55;4.05;;;;;;;26.11;44.01;99640.41;4482403;32;33493;-77
2023/09/11 07:18:33;;;;;;;9.43;5.00;;;;;;;26.17;41.49;99647.75;4484458;32;33675;-78
2023/09/11 07:21:01;;;;;;;10.07;4.20;;;;;;;26.14;42.43;99652.84;4483084;32;33872;-78
2023/09/11 07:23:29;;;;;;;9.68;3.58;;;;;;;26.05;42.95;99648.66;4482057;32;34966;-78
2023/09/11 07:25:58;;;;;;;7.75;4.35;;;;;;;25.81;43.32;99648.34;4483862;32;32919;-78
2023/09/11 07:28:26;;;;;;;6.78;4.20;;;;;;;26.28;42.76;99651.69;4475834;32;33930;-78
2023/09/11 07:30:55;;;;;;;6.72;4.45;;;;;;;26.39;42.53;99650.19;4481020;32;33434;-78
2023/09/11 07:33:22;;;;;;;9.18;4.47;;;;;;;26.49;42.62;99653.31;4484387;32;33721;-77
2023/09/11 07:35:50;;;;;;;8.30;4.37;;;;;;;26.50;42.74;99660.47;4484545;32;33239;-77
2023/09/11 07:38:18;;;;;;;9.65;3.90;;;;;;;26.58;43.18;99657.50;4481545;31;33776;-79
2023/09/11 07:40:46;;;;;;;10.05;4.12;;;;;;;26.75;42.89;99660.53;4482921;32;35221;-76
2023/09/11 07:43:13;;;;;;;9.43;4.20;;;;;;;26.29;42.72;99656.13;4482781;31;34974;-76
2023/09/11 07:45:42;;;;;;;9.82;5.75;;;;;;;25.95;43.10;99660.09;4482662;31;33366;-76
2023/09/11 07:48:10;;;;;;;8.27;4.28;;;;;;;26.35;42.80;99657.16;4480288;32;34307;-78
2023/09/11 07:50:38;;;;;;;8.70;4.28;;;;;;;26.69;42.91;99662.25;4477175;31;33597;-78
2023/09/11 07:53:05;;;;;;;7.70;4.72;;;;;;;26.52;44.18;99654.75;4479882;31;34100;-79
2023/09/11 07:55:39;;;;;;;10.00;5.40;;;;;;;26.83;43.85;99649.25;4483618;32;33021;-80
2023/09/11 07:58:09;;;;;;;13.43;5.37;;;;;;;27.05;43.42;99657.97;4446605;32;33532;-77
2023/09/11 08:00:37;;;;;;;9.40;5.28;;;;;;;26.94;43.64;99653.22;4464408;32;34011;-77
2023/09/11 08:03:05;;;;;;;9.63;4.72;;;;;;;27.27;43.08;99649.34;4465420;32;33532;-77
2023/09/11 08:05:33;;;;;;;11.10;4.85;;;;;;;27.14;42.73;99650.31;4460560;32;34272;-77
2023/09/11 08:08:02;;;;;;;10.38;4.60;;;;;;;27.38;42.77;99654.09;4459993;32;33618;-77
2023/09/11 08:10:30;;;;;;;11.52;4.68;;;;;;;27.56;42.12;99654.12;4460213;32;33329;-76
2023/09/11 08:12:58;;;;;;;9.35;4.62;;;;;;;28.04;40.79;99647.88;4460955;32;33741;-77
2023/09/11 08:15:28;;;;;;;10.75;5.05;;;;;;;28.38;40.15;99644.69;4467058;32;33466;-77
2023/09/11 08:17:56;;;;;;;9.25;4.87;;;;;;;28.18;40.23;99645.78;4466514;32;33514;-77
2023/09/11 08:20:23;;;;;;;13.85;6.18;;;;;;;28.22;40.24;99644.28;4466033;32;34119;-77
2023/09/11 08:22:51;;;;;;;8.98;5.28;;;;;;;27.82;40.88;99641.19;4465180;32;35071;-77
2023/09/11 08:25:19;;;;;;;10.63;5.35;;;;;;;28.05;41.05;99641.31;4451636;32;33321;-76
2023/09/11 08:27:46;;;;;;;10.98;4.90;;;;;;;27.96;41.21;99644.59;4463835;32;33583;-77
2023/09/11 08:30:14;;;;;;;11.65;5.60;;;;;;;28.20;41.14;99645.59;4458512;31;33733;-76
2023/09/11 08:32:42;;;;;;;12.02;4.78;;;;;;;28.37;40.91;99638.34;4480373;31;32105;-78
2023/09/11 08:35:10;;;;;;;13.65;5.62;;;;;;;28.48;40.35;99640.34;4480964;32;32913;-77
2023/09/11 08:37:37;;;;;;;11.38;6.65;;;;;;;28.51;40.52;99637.13;4448564;32;33737;-77
2023/09/11 08:40:06;;;;;;;8.45;5.28;;;;;;;28.44;40.30;99636.34;4448584;32;33880;-77
2023/09/11 08:42:34;;;;;;;11.52;5.28;;;;;;;28.61;39.31;99628.28;4443834;32;33735;-77
2023/09/11 08:45:01;;;;;;;10.43;5.40;;;;;;;28.80;39.50;99634.56;4447881;32;33920;-77
2023/09/11 08:47:30;;;;;;;9.35;5.20;;;;;;;28.72;39.05;99627.47;4446623;32;34710;-77
2023/09/11 08:50:02;;;;;;;9.95;6.07;;;;;;;28.41;39.06;99627.72;4430179;32;33041;-79
2023/09/11 08:52:31;;;;;;;15.00;6.43;;;;;;;28.87;37.77;99628.94;4422975;32;33692;-78
2023/09/11 08:55:03;;;;;;;10.93;4.82;;;;;;;28.60;38.40;99629.34;4416646;32;33537;-79
2023/09/11 08:57:32;;;;;;;8.15;4.47;;;;;;;28.39;39.71;99627.94;4417512;32;34022;-79
2023/09/11 09:00:04;;;;;;;11.93;5.68;;;;;;;28.94;38.20;99626.91;4417588;32;33652;-78
2023/09/11 09:02:33;;;;;;;9.75;5.22;;;;;;;28.98;37.49;99625.34;4416946;32;33824;-79
2023/09/11 09:05:03;;;;;;;7.00;3.95;;;;;;;28.97;37.74;99623.69;4404823;32;34202;-79
2023/09/11 09:07:32;;;;;;;12.95;5.30;;;;;;;28.93;36.99;99622.50;4419561;32;33601;-80
2023/09/11 09:10:02;;;;;;;13.52;4.55;;;;;;;29.00;35.34;99628.72;4417777;32;34922;-79
2023/09/11 09:12:32;;;;;;;8.60;3.70;;;;;;;29.29;35.21;99624.22;4418301;32;34432;-80
2023/09/11 09:15:01;;;;;;;10.00;5.05;;;;;;;29.68;35.03;99622.63;4415779;32;33102;-80
2023/09/11 09:17:29;;;;;;;12.05;4.82;;;;;;;29.60;35.85;99627.66;4416972;32;33847;-80
2023/09/11 09:19:56;;;;;;;13.05;5.43;;;;;;;29.51;36.61;99627.19;4418583;32;34513;-79
2023/09/11 09:22:24;;;;;;;12.40;4.87;;;;;;;29.63;34.13;99616.16;4435481;32;33650;-79
2023/09/11 09:24:53;;;;;;;13.62;4.65;;;;;;;29.97;33.71;99616.34;4434424;32;33455;-79
2023/09/11 09:27:24;;;;;;;11.02;5.03;;;;;;;29.98;35.20;99618.00;4428366;32;33908;-79
2023/09/11 09:29:52;;;;;;;8.57;5.15;;;;;;;29.89;34.55;99617.56;4408527;32;33648;-78
2023/09/11 09:32:21;;;;;;;9.20;4.65;;;;;;;29.77;33.84;99612.06;4432994;32;33866;-79
2023/09/11 09:34:53;;;;;;;9.43;5.00;;;;;;;30.02;32.58;99606.25;4479517;32;34048;-80
2023/09/11 09:37:21;;;;;;;13.20;5.12;;;;;;;29.48;33.65;99613.91;4476924;32;34767;-78
2023/09/11 09:39:50;;;;;;;11.63;5.03;;;;;;;29.87;33.58;99617.81;4468632;32;32740;-78
2023/09/11 09:42:18;;;;;;;11.95;5.35;;;;;;;30.29;32.70;99608.44;4467487;31;33944;-77
2023/09/11 09:44:52;;;;;;;9.55;4.45;;;;;;;30.10;33.95;99610.53;4482053;31;32545;-78
2023/09/11 09:47:21;;;;;;;13.70;6.18;;;;;;;30.30;32.86;99599.06;4481480;32;32897;-78
2023/09/11 09:49:53;;;;;;;11.90;4.93;;;;;;;30.37;33.96;99597.00;4481200;32;33074;-78
2023/09/11 09:52:30;;;;;;;8.75;5.18;;;;;;;30.01;33.78;99598.19;4467315;31;33693;-74
2023/09/11 09:55:08;;;;;;;9.68;5.00;;;;;;;30.44;33.53;99594.09;4468712;32;34237;-74
2023/09/11 09:57:36;;;;;;;10.82;4.50;;;;;;;29.86;34.31;99601.50;4477931;31;33922;-74
2023/09/11 10:00:05;;;;;;;10.82;4.85;;;;;;;30.26;34.12;99589.59;4479630;31;34899;-75
2023/09/11 10:02:34;;;;;;;8.65;5.10;;;;;;;30.17;32.94;99586.38;4475629;31;33733;-75
2023/09/11 10:05:04;;;;;;;9.50;4.35;;;;;;;29.98;32.85;99590.41;4479979;31;33356;-77
2023/09/11 10:07:36;;;;;;;8.90;5.22;;;;;;;30.57;32.11;99588.25;4478537;32;34665;-77
2023/09/11 10:10:23;;;;;;;10.80;5.22;;;;;;;30.68;31.76;99581.81;4477293;31;33916;-77
2023/09/11 10:13:04;;;;;;;9.20;4.50;;;;;;;31.06;30.64;99572.78;4481242;31;34713;-77
2023/09/11 10:15:34;;;;;;;8.45;5.40;;;;;;;30.85;31.26;99579.94;4474382;31;34384;-77
2023/09/11 10:18:03;;;;;;;12.88;4.68;;;;;;;31.32;29.15;99562.91;4478894;32;34315;-78
2023/09/11 10:20:32;;;;;;;11.45;4.93;;;;;;;31.39;29.10;99565.53;4482376;31;35227;-77
2023/09/11 10:23:03;;;;;;;8.10;4.35;;;;;;;31.07;29.94;99571.69;4488123;31;34007;-78
2023/09/11 10:25:38;;;;;;;12.73;5.93;;;;;;;31.29;29.26;99560.66;4471022;31;33237;-74
2023/09/11 10:28:17;;;;;;;8.82;5.35;;;;;;;31.16;30.50;99557.44;4462848;32;33496;-74
2023/09/11 10:30:53;;;;;;;10.77;5.62;;;;;;;30.96;30.73;99557.97;4465143;31;34919;-74
2023/09/11 10:33:35;;;;;;;14.85;5.75;;;;;;;31.41;30.61;99545.94;4481949;31;34834;-74
2023/09/11 10:36:13;;;;;;;9.70;5.95;;;;;;;31.66;30.94;99540.72;4468633;32;33191;-74
2023/09/11 10:38:46;;;;;;;14.73;6.97;;;;;;;31.58;31.10;99538.41;4461230;32;33692;-74
2023/09/11 10:41:14;;;;;;;15.80;6.57;;;;;;;31.67;31.12;99538.78;4480740;31;33640;-74
2023/09/11 10:43:45;;;;;;;11.18;5.87;;;;;;;31.88;30.48;99534.31;4485084;31;33621;-74
2023/09/11 10:46:21;;;;;;;10.98;5.70;;;;;;;31.87;30.38;99533.50;4462018;32;33215;-75
2023/09/11 10:48:52;;;;;;;13.05;5.43;;;;;;;32.13;30.55;99533.78;4462031;32;34806;-79
2023/09/11 10:51:20;;;;;;;9.30;5.30;;;;;;;31.49;31.22;99537.19;4466745;32;33767;-77
2023/09/11 10:53:48;;;;;;;11.57;5.97;;;;;;;32.08;30.18;99537.34;4464524;32;33974;-77
2023/09/11 10:56:16;;;;;;;16.90;5.93;;;;;;;31.90;29.73;99530.22;4462843;32;31319;-77
2023/09/11 10:58:44;;;;;;;9.85;5.50;;;;;;;32.23;30.21;99534.75;4461439;32;33557;-77
2023/09/11 11:01:16;;;;;;;14.95;5.07;;;;;;;32.41;30.13;99524.38;4460298;32;34068;-77
2023/09/11 11:03:44;;;;;;;11.18;5.70;;;;;;;32.40;29.94;99525.47;4468405;32;33320;-77
2023/09/11 11:06:17;;;;;;;8.80;4.53;;;;;;;31.97;29.81;99527.25;4467398;32;33883;-78
2023/09/11 11:08:46;;;;;;;10.18;5.50;;;;;;;32.09;28.76;99527.94;4451872;32;33535;-78
2023/09/11 11:11:22;;;;;;;12.68;5.25;;;;;;;32.59;28.33;99528.72;4455681;32;35643;-77
2023/09/11 11:14:21;;;;;;;13.80;5.60;;;;;;;32.65;28.71;99525.72;4467132;32;35243;-81
2023/09/11 11:17:04;;;;;;;9.02;5.00;;;;;;;32.45;29.05;99520.00;4461747;31;34608;-80
2023/09/11 11:19:53;;;;;;;12.02;4.60;;;;;;;32.46;27.47;99511.44;4481490;31;34938;-76
2023/09/11 11:22:32;;;;;;;10.23;4.75;;;;;;;32.55;27.72;99514.53;4415828;32;33884;-74
2023/09/11 11:25:05;;;;;;;9.18;5.20;;;;;;;32.80;26.94;99518.63;4418198;32;33764;-75
2023/09/11 11:27:33;;;;;;;14.15;5.05;;;;;;;32.51;27.97;99527.25;4414405;32;34466;-74
2023/09/11 11:30:00;;;;;;;10.07;4.68;;;;;;;31.83;28.30;99523.22;4407739;32;33703;-77
2023/09/11 11:32:30;;;;;;;8.40;4.72;;;;;;;32.19;27.96;99521.69;4419009;32;36418;-77
2023/09/11 11:35:01;;;;;;;13.27;5.05;;;;;;;32.67;27.30;99523.50;4415787;32;34649;-76
2023/09/11 11:37:32;;;;;;;10.48;4.95;;;;;;;32.49;27.63;99518.41;4418570;32;33131;-76
2023/09/11 11:40:00;;;;;;;8.13;4.68;;;;;;;32.64;26.64;99512.13;4417234;32;33576;-78
2023/09/11 11:42:29;;;;;;;9.70;4.78;;;;;;;32.60;27.35;99509.06;4419304;32;35090;-77